Time;durP1;ratioP1;P1;durP2;ratioP2;P2;SDS_P1;SDS_P2;PMS_P1;PMS_P2;Temp;Humidity;BMP_temperature;BMP_pressure;BME280_temperature;BME280_humidity;BME280_pressure;Samples;Min_cycle;Max_cycle;Signal;HPM_P1;HPM_P2
2021/09/19 00:02:22;;;;;;;8.67;3.57;;;;;;;7.40;94.86;98577.52;2309314;77;21387;-83
2021/09/19 00:05:23;;;;;;;11.90;4.27;;;;;;;7.41;94.69;98575.37;2315479;77;20986;-83
2021/09/19 00:08:23;;;;;;;7.37;4.60;;;;;;;7.45;94.98;98580.20;2309908;76;21000;-83
2021/09/19 00:11:24;;;;;;;5.37;4.80;;;;;;;7.45;94.97;98581.50;2308213;77;21027;-82
2021/09/19 00:14:24;;;;;;;5.93;4.67;;;;;;;7.44;94.85;98580.63;2312100;77;20945;-83
2021/09/19 00:17:25;;;;;;;6.20;5.13;;;;;;;7.46;94.91;98580.23;2312791;76;20983;-83
2021/09/19 00:20:25;;;;;;;5.10;4.50;;;;;;;7.46;94.97;98581.95;2316012;76;20944;-84
2021/09/19 00:23:26;;;;;;;7.80;5.20;;;;;;;7.45;95.17;98577.18;2317057;74;21335;-82
2021/09/19 00:26:26;;;;;;;7.50;5.70;;;;;;;7.50;95.22;98585.06;2308022;76;20983;-84
2021/09/19 00:29:27;;;;;;;6.80;5.33;;;;;;;7.51;95.27;98575.13;2314930;75;20932;-84
2021/09/19 00:32:27;;;;;;;7.97;6.03;;;;;;;7.52;95.40;98581.65;2318528;76;20947;-83
2021/09/19 00:35:28;;;;;;;9.70;7.47;;;;;;;7.55;95.56;98580.83;2313804;76;21061;-84
2021/09/19 00:38:28;;;;;;;10.30;7.83;;;;;;;7.57;95.51;98586.51;2316323;76;20975;-83
2021/09/19 00:41:29;;;;;;;12.97;8.57;;;;;;;7.56;95.48;98589.95;2312301;76;21400;-83
2021/09/19 00:44:30;;;;;;;13.33;10.03;;;;;;;7.56;95.52;98587.36;2311592;77;20945;-84
2021/09/19 00:47:31;;;;;;;13.87;10.87;;;;;;;7.58;95.65;98586.09;2315628;76;20960;-84
2021/09/19 00:50:31;;;;;;;18.27;13.67;;;;;;;7.59;95.69;98593.91;2320293;76;21304;-81
2021/09/19 00:53:33;;;;;;;20.57;13.73;;;;;;;7.59;96.01;98599.10;2289314;77;20971;-82
2021/09/19 00:56:34;;;;;;;17.43;13.70;;;;;;;7.60;95.64;98591.77;2311984;76;20987;-83
2021/09/19 00:59:34;;;;;;;18.60;14.30;;;;;;;7.60;95.44;98590.47;2316290;76;21033;-84
2021/09/19 01:02:35;;;;;;;19.03;13.77;;;;;;;7.61;95.34;98597.41;2317108;77;21007;-83
2021/09/19 01:05:35;;;;;;;17.60;14.30;;;;;;;7.63;95.36;98596.14;2309708;76;21310;-84
2021/09/19 01:08:36;;;;;;;17.33;13.63;;;;;;;7.67;95.08;98591.46;2314368;77;21292;-83
2021/09/19 01:11:36;;;;;;;18.93;13.60;;;;;;;7.70;95.06;98597.14;2308306;77;20948;-83
2021/09/19 01:14:37;;;;;;;19.07;14.30;;;;;;;7.74;95.03;98595.05;2313070;77;20955;-85
2021/09/19 01:17:37;;;;;;;15.33;12.70;;;;;;;7.74;94.69;98591.16;2319970;75;20992;-84
2021/09/19 01:20:37;;;;;;;15.87;13.10;;;;;;;7.76;94.64;98593.36;2313917;76;20958;-84
2021/09/19 01:23:38;;;;;;;14.97;12.27;;;;;;;7.76;94.29;98590.76;2316165;76;20956;-85
2021/09/19 01:26:39;;;;;;;15.83;12.30;;;;;;;7.76;93.99;98599.43;2312141;76;20916;-84
2021/09/19 01:29:39;;;;;;;16.47;13.07;;;;;;;7.74;94.06;98593.33;2301439;76;21020;-83
2021/09/19 01:32:40;;;;;;;16.07;12.87;;;;;;;7.73;93.82;98598.07;2312068;76;20971;-83
2021/09/19 01:35:41;;;;;;;18.57;13.40;;;;;;;7.71;94.00;98591.09;2303046;76;21327;-84
2021/09/19 01:38:41;;;;;;;15.93;12.60;;;;;;;7.68;94.24;98587.59;2310369;76;20936;-84
2021/09/19 01:44:44;;;;;;;15.50;12.73;;;;;;;7.67;93.94;98589.73;2285431;76;21343;-83
2021/09/19 01:47:45;;;;;;;17.57;13.07;;;;;;;7.64;93.78;98590.98;2295906;76;20972;-84
2021/09/19 01:50:45;;;;;;;22.00;14.00;;;;;;;7.66;93.99;98597.50;2324287;74;20919;-82
2021/09/19 01:53:48;;;;;;;20.53;14.33;;;;;;;7.62;94.11;98591.37;2306377;76;20953;-83
2021/09/19 01:56:48;;;;;;;16.67;13.60;;;;;;;7.62;93.98;98589.20;2289485;77;20982;-83
2021/09/19 01:59:49;;;;;;;22.67;14.87;;;;;;;7.62;94.27;98587.48;2317016;76;20982;-84
2021/09/19 02:02:49;;;;;;;20.60;16.37;;;;;;;7.62;94.42;98594.39;2316017;75;20993;-84
2021/09/19 02:05:50;;;;;;;23.37;15.50;;;;;;;7.63;94.24;98594.84;2315002;75;20972;-84
2021/09/19 02:08:50;;;;;;;23.03;15.50;;;;;;;7.63;94.29;98595.72;2316043;76;21006;-84
2021/09/19 02:11:51;;;;;;;21.40;16.07;;;;;;;7.64;94.13;98598.77;2316494;76;20971;-83
2021/09/19 02:14:51;;;;;;;23.87;16.67;;;;;;;7.65;94.42;98598.34;2315623;75;20912;-84
2021/09/19 02:17:52;;;;;;;24.53;18.43;;;;;;;7.66;94.29;98600.97;2315560;74;20952;-84
2021/09/19 02:20:52;;;;;;;26.67;18.90;;;;;;;7.67;94.35;98592.34;2316122;76;21391;-83
2021/09/19 02:23:53;;;;;;;28.10;18.53;;;;;;;7.68;94.36;98598.41;2317092;76;20944;-83
2021/09/19 02:26:53;;;;;;;25.10;19.40;;;;;;;7.66;94.37;98584.09;2317245;76;20988;-84
2021/09/19 02:29:54;;;;;;;31.97;23.27;;;;;;;7.67;94.24;98589.73;2301352;76;21296;-83
2021/09/19 02:32:55;;;;;;;38.90;28.50;;;;;;;8.15;100.00;98583.70;2328259;76;20963;-84
2021/09/19 02:35:55;;;;;;;32.23;23.70;;;;;;;9.15;100.00;98574.44;2369166;75;20971;-85
2021/09/19 02:38:56;;;;;;;24.73;19.70;;;;;;;10.23;100.00;98572.22;2364305;75;20892;-83
2021/09/19 02:41:56;;;;;;;22.33;18.90;;;;;;;10.69;97.35;98579.58;2371957;75;20937;-84
2021/09/19 02:44:57;;;;;;;18.13;15.60;;;;;;;11.52;96.50;98573.53;2287001;76;20923;-84
2021/09/19 02:47:57;;;;;;;21.00;15.90;;;;;;;11.62;84.51;98596.22;2327702;75;21373;-83
2021/09/19 02:51:00;;;;;;;14.30;12.90;;;;;;;11.76;86.70;98585.38;2316142;76;21261;-83
2021/09/19 02:54:00;;;;;;;15.00;13.50;;;;;;;12.31;82.53;98579.00;2287306;77;20916;-85
2021/09/19 02:57:00;;;;;;;15.97;13.20;;;;;;;12.35;85.76;98582.05;2315644;75;21011;-83
2021/09/19 03:00:01;;;;;;;14.80;13.20;;;;;;;12.63;86.83;98586.41;2311887;75;21366;-84
2021/09/19 03:03:01;;;;;;;14.15;12.65;;;;;;;13.36;81.79;98580.22;2313090;76;20916;-84
2021/09/19 03:06:02;;;;;;;13.15;11.78;;;;;;;13.66;80.75;98580.53;2316958;77;20944;-85
2021/09/19 03:09:02;;;;;;;13.32;11.50;;;;;;;14.23;77.66;98581.10;2315766;77;20963;-83
2021/09/19 03:12:03;;;;;;;12.23;10.65;;;;;;;13.82;78.91;98587.45;2314452;76;20936;-83
2021/09/19 03:15:03;;;;;;;13.65;10.95;;;;;;;13.07;70.10;98588.13;2310897;75;20932;-83
2021/09/19 03:18:05;;;;;;;12.93;11.63;;;;;;;11.42;72.46;98598.31;2315996;76;21342;-83
2021/09/19 03:21:05;;;;;;;13.15;11.85;;;;;;;10.35;75.81;98597.11;2285659;76;20939;-84
2021/09/19 03:24:06;;;;;;;16.03;13.80;;;;;;;9.69;78.20;98597.72;2316405;76;21418;-85
2021/09/19 03:27:06;;;;;;;14.77;13.23;;;;;;;9.25;80.10;98606.27;2277248;76;20935;-85
2021/09/19 03:30:07;;;;;;;16.93;14.47;;;;;;;8.85;81.78;98603.11;2300738;76;20999;-84
2021/09/19 03:33:07;;;;;;;18.80;14.13;;;;;;;8.59;82.97;98605.28;2294769;77;20947;-83
2021/09/19 03:36:08;;;;;;;16.93;13.80;;;;;;;8.37;84.44;98610.11;2318763;76;20955;-82
2021/09/19 03:39:08;;;;;;;15.30;13.40;;;;;;;8.23;85.16;98602.04;2288564;77;21035;-83
2021/09/19 03:42:09;;;;;;;17.97;15.80;;;;;;;8.11;85.25;98605.30;2330420;74;21307;-84
2021/09/19 03:45:09;;;;;;;16.13;14.43;;;;;;;8.02;86.22;98609.04;2368073;75;20943;-84
2021/09/19 03:48:10;;;;;;;17.30;15.03;;;;;;;7.94;86.82;98594.61;2353524;75;20903;-83
2021/09/19 03:51:10;;;;;;;22.30;15.50;;;;;;;7.90;87.08;98603.62;2359734;75;20967;-83
2021/09/19 03:54:11;;;;;;;17.47;14.33;;;;;;;7.87;87.65;98603.14;2338978;75;21336;-82
2021/09/19 03:57:11;;;;;;;19.93;14.80;;;;;;;7.82;87.83;98603.47;2371981;74;20933;-84
2021/09/19 04:00:12;;;;;;;21.40;15.63;;;;;;;7.80;87.83;98608.16;2368190;75;20977;-83
2021/09/19 04:03:12;;;;;;;18.97;16.30;;;;;;;7.76;88.29;98613.72;2368572;75;20948;-84
2021/09/19 04:06:13;;;;;;;16.00;14.30;;;;;;;7.75;88.17;98604.59;2320703;74;20907;-83
2021/09/19 04:09:13;;;;;;;16.40;14.33;;;;;;;7.73;88.15;98612.78;2312096;77;21631;-83
2021/09/19 04:12:14;;;;;;;16.70;14.10;;;;;;;7.68;88.40;98608.80;2313106;76;20998;-84
2021/09/19 04:15:14;;;;;;;19.07;14.63;;;;;;;7.65;88.56;98612.22;2316113;76;20948;-83
2021/09/19 04:18:16;;;;;;;22.97;15.40;;;;;;;7.66;88.80;98613.97;2316029;76;21034;-83
2021/09/19 04:21:17;;;;;;;18.17;14.97;;;;;;;8.13;90.30;98609.23;2315994;76;20972;-82
2021/09/19 04:24:17;;;;;;;21.33;14.10;;;;;;;8.09;88.15;98612.20;2311382;76;20959;-82
2021/09/19 04:27:18;;;;;;;19.03;13.63;;;;;;;7.99;88.04;98620.68;2282853;76;20967;-82
2021/09/19 04:30:18;;;;;;;18.73;13.63;;;;;;;7.92;88.15;98622.71;2314705;77;21077;-83
2021/09/19 04:33:19;;;;;;;16.03;13.90;;;;;;;7.90;88.57;98620.51;2316168;76;20951;-83
2021/09/19 04:36:20;;;;;;;17.43;12.60;;;;;;;7.91;88.56;98629.63;2313806;76;21010;-83
2021/09/19 04:39:20;;;;;;;16.20;13.40;;;;;;;7.89;88.38;98631.33;2312761;77;20941;-83
2021/09/19 04:42:22;;;;;;;19.97;12.93;;;;;;;7.87;88.54;98630.42;2310687;76;20936;-82
2021/09/19 04:45:23;;;;;;;21.57;12.87;;;;;;;7.84;88.74;98638.16;2312916;76;20975;-81
2021/09/19 04:48:23;;;;;;;15.57;13.97;;;;;;;7.78;88.68;98640.61;2317085;76;21016;-83
2021/09/19 04:51:24;;;;;;;16.80;11.70;;;;;;;8.98;94.85;98643.63;2318296;76;21339;-83
2021/09/19 04:54:24;;;;;;;17.67;12.23;;;;;;;8.85;86.77;98639.55;2314818;76;20931;-85
2021/09/19 04:57:25;;;;;;;12.63;11.10;;;;;;;8.57;86.58;98638.63;2309894;76;20967;-83
2021/09/19 05:00:25;;;;;;;16.00;12.33;;;;;;;8.38;86.63;98650.88;2281616;76;20990;-83
2021/09/19 05:03:26;;;;;;;15.83;11.83;;;;;;;8.20;86.79;98649.66;2313045;74;20935;-84
2021/09/19 05:06:26;;;;;;;15.60;11.87;;;;;;;8.10;87.26;98654.67;2309076;77;20968;-83
2021/09/19 05:09:27;;;;;;;17.87;13.60;;;;;;;8.05;87.81;98657.19;2315063;77;21387;-83
2021/09/19 05:12:27;;;;;;;14.33;12.07;;;;;;;7.99;88.08;98653.17;2308831;76;20948;-84
2021/09/19 05:15:28;;;;;;;16.97;12.77;;;;;;;7.96;88.21;98657.89;2310184;77;20944;-83
2021/09/19 05:18:28;;;;;;;17.83;12.07;;;;;;;7.96;88.52;98666.11;2316067;76;20932;-85
2021/09/19 05:21:29;;;;;;;16.73;11.70;;;;;;;7.95;88.54;98662.63;2315944;76;20945;-83
2021/09/19 05:24:29;;;;;;;14.10;11.60;;;;;;;7.97;88.52;98663.96;2318019;77;20982;-84
2021/09/19 05:27:29;;;;;;;18.70;12.80;;;;;;;7.97;88.50;98658.77;2320816;76;21032;-84
2021/09/19 05:30:30;;;;;;;17.03;11.80;;;;;;;7.96;88.70;98663.09;2284314;76;20975;-83
2021/09/19 05:33:31;;;;;;;16.57;10.60;;;;;;;7.98;88.80;98670.91;2316793;76;20956;-83
2021/09/19 05:36:31;;;;;;;15.47;10.77;;;;;;;7.99;88.74;98666.16;2316804;76;20970;-83
2021/09/19 05:39:31;;;;;;;15.73;11.47;;;;;;;8.01;88.09;98668.80;2316018;74;20968;-84
2021/09/19 05:42:32;;;;;;;12.30;10.90;;;;;;;7.98;88.44;98663.99;2314704;76;20963;-84
2021/09/19 05:45:32;;;;;;;14.63;9.97;;;;;;;7.98;88.45;98669.61;2314405;76;21339;-84
2021/09/19 05:48:33;;;;;;;12.33;10.67;;;;;;;8.02;88.60;98662.75;2317553;76;20951;-84
2021/09/19 05:51:33;;;;;;;13.63;10.67;;;;;;;8.04;88.46;98666.25;2317037;76;20995;-84
2021/09/19 05:54:34;;;;;;;14.80;10.40;;;;;;;8.04;88.46;98664.53;2310770;76;20932;-83
2021/09/19 05:57:34;;;;;;;16.03;9.43;;;;;;;8.06;88.44;98665.86;2316248;75;21019;-83
2021/09/19 06:00:35;;;;;;;14.47;10.33;;;;;;;8.08;88.36;98667.64;2316001;75;21006;-83
2021/09/19 06:03:37;;;;;;;11.43;9.70;;;;;;;8.07;88.25;98667.19;2315638;76;20987;-82
2021/09/19 06:06:38;;;;;;;10.80;9.57;;;;;;;8.06;88.28;98666.73;2313204;76;21400;-84
2021/09/19 06:09:38;;;;;;;14.63;10.47;;;;;;;8.03;87.78;98679.67;2314181;76;20927;-83
2021/09/19 06:12:39;;;;;;;16.30;9.97;;;;;;;8.04;88.30;98675.35;2308774;76;20990;-84
2021/09/19 06:15:39;;;;;;;12.83;9.90;;;;;;;8.03;88.17;98678.80;2314714;75;20990;-84
2021/09/19 06:18:40;;;;;;;16.97;10.73;;;;;;;7.99;88.16;98676.56;2314329;75;20944;-82
2021/09/19 06:21:40;;;;;;;15.03;11.23;;;;;;;7.98;88.32;98675.69;2313694;76;21016;-83
2021/09/19 06:24:41;;;;;;;19.53;11.20;;;;;;;7.98;88.26;98687.38;2278199;76;20967;-81
2021/09/19 06:27:41;;;;;;;15.30;11.37;;;;;;;7.99;88.04;98680.46;2299123;77;20979;-83
2021/09/19 06:30:42;;;;;;;13.60;10.23;;;;;;;7.99;88.11;98681.77;2303686;76;21017;-83
2021/09/19 06:33:42;;;;;;;14.17;10.47;;;;;;;8.02;87.70;98684.42;2294743;77;21308;-84
2021/09/19 06:36:43;;;;;;;13.73;10.63;;;;;;;8.02;87.56;98683.13;2371623;75;20925;-84
2021/09/19 06:39:43;;;;;;;14.90;10.53;;;;;;;8.07;87.84;98676.28;2281639;76;20923;-82
2021/09/19 06:42:44;;;;;;;12.60;10.73;;;;;;;8.11;87.30;98679.82;2319311;74;20916;-83
2021/09/19 06:45:44;;;;;;;11.63;10.17;;;;;;;8.15;87.51;98682.50;2376347;74;20936;-84
2021/09/19 06:52:11;;;;;;;11.93;8.53;;;;;;;8.29;86.79;98684.94;2320788;75;21403;-83
2021/09/19 06:55:11;;;;;;;12.93;10.20;;;;;;;8.33;86.14;98695.00;2302525;76;20964;-83
2021/09/19 06:58:12;;;;;;;16.33;10.37;;;;;;;8.34;86.26;98688.95;2295380;77;20951;-83
2021/09/19 07:01:14;;;;;;;17.63;10.30;;;;;;;8.36;86.45;98690.28;2353440;74;20975;-84
2021/09/19 07:04:15;;;;;;;13.60;10.33;;;;;;;8.38;86.14;98687.28;2366508;75;21366;-84
2021/09/19 07:07:15;;;;;;;15.53;10.70;;;;;;;8.44;86.08;98689.99;2363242;75;20955;-84
2021/09/19 07:10:16;;;;;;;16.13;10.73;;;;;;;8.44;86.16;98687.39;2362007;75;21399;-84
2021/09/19 07:13:16;;;;;;;12.60;10.23;;;;;;;8.51;86.44;98698.36;2368959;75;21340;-84
2021/09/19 07:16:17;;;;;;;14.27;9.90;;;;;;;8.52;86.11;98706.19;2319362;75;20941;-82
2021/09/19 07:19:18;;;;;;;15.93;11.33;;;;;;;8.53;85.63;98696.23;2314466;77;20956;-83
2021/09/19 07:22:18;;;;;;;21.60;11.43;;;;;;;9.05;85.92;98699.72;2316116;77;20999;-81
2021/09/19 07:25:19;;;;;;;27.07;18.93;;;;;;;8.88;84.32;98695.98;2277099;76;20919;-83
2021/09/19 07:28:19;;;;;;;24.03;17.23;;;;;;;8.79;86.86;98698.01;2293712;76;20960;-83
2021/09/19 07:31:20;;;;;;;23.90;16.37;;;;;;;9.73;86.55;98700.28;2292989;76;20991;-83
2021/09/19 07:34:21;;;;;;;21.43;13.10;;;;;;;10.98;86.01;98695.11;2289298;77;20912;-84
2021/09/19 07:37:21;;;;;;;19.93;11.93;;;;;;;12.46;78.84;98693.31;2368794;75;21299;-83
2021/09/19 07:40:21;;;;;;;17.73;10.82;;;;;;;12.85;75.00;98697.72;2370064;75;20930;-82
2021/09/19 07:43:22;;;;;;;12.50;9.03;;;;;;;13.67;77.23;98692.00;2364830;75;21068;-84
2021/09/19 07:46:23;;;;;;;17.80;11.85;;;;;;;13.75;73.06;98692.41;2378164;74;20936;-82
2021/09/19 07:49:23;;;;;;;14.00;8.93;;;;;;;14.09;72.65;98690.55;2293094;76;20924;-83
2021/09/19 07:52:24;;;;;;;13.48;8.83;;;;;;;15.13;71.37;98692.98;2328427;74;20909;-83
2021/09/19 07:55:27;;;;;;;13.03;8.40;;;;;;;15.55;70.52;98691.69;2295722;77;20984;-84
2021/09/19 07:58:30;;;;;;;14.40;8.03;;;;;;;16.25;67.70;98691.36;2287703;76;21327;-83
2021/09/19 08:01:31;;;;;;;9.70;7.60;;;;;;;16.77;67.12;98691.98;2301470;76;21074;-83
2021/09/19 08:04:31;;;;;;;12.25;7.75;;;;;;;16.39;61.78;98688.53;2286023;77;20966;-83
2021/09/19 08:07:32;;;;;;;7.97;7.17;;;;;;;15.41;62.11;98680.88;2309527;77;20944;-83
2021/09/19 08:10:32;;;;;;;10.60;7.53;;;;;;;15.61;62.72;98686.88;2314563;76;21300;-83
2021/09/19 08:13:33;;;;;;;12.45;6.97;;;;;;;16.47;67.18;98689.30;2309984;76;20979;-83
2021/09/19 08:16:34;;;;;;;8.40;7.10;;;;;;;16.52;59.96;98687.50;2311837;76;20940;-83
2021/09/19 08:19:34;;;;;;;11.68;7.03;;;;;;;15.62;61.12;98688.61;2300711;76;20991;-83
2021/09/19 08:22:35;;;;;;;10.65;6.97;;;;;;;16.06;62.87;98691.17;2310405;75;20983;-84
2021/09/19 08:25:35;;;;;;;9.60;7.12;;;;;;;16.55;63.43;98688.33;2301151;76;21617;-85
2021/09/19 08:28:36;;;;;;;13.13;6.47;;;;;;;16.78;57.88;98691.97;2308819;76;20938;-83
2021/09/19 08:31:37;;;;;;;9.60;6.90;;;;;;;15.02;56.31;98686.06;2287702;77;20959;-82
2021/09/19 08:34:41;;;;;;;14.25;6.72;;;;;;;13.01;61.54;98702.12;2299207;76;20999;-82
2021/09/19 08:37:40;;;;;;;9.20;6.53;;;;;;;12.26;65.82;98703.73;2316653;74;20978;-82
2021/09/19 08:40:41;;;;;;;8.20;6.60;;;;;;;12.01;67.09;98707.98;2320647;75;20950;-84
2021/09/19 08:43:41;;;;;;;11.43;6.50;;;;;;;11.79;67.85;98716.16;2294180;77;21028;-85
2021/09/19 08:46:42;;;;;;;10.08;6.33;;;;;;;11.64;68.62;98712.13;2294389;76;20952;-85
2021/09/19 08:49:43;;;;;;;10.80;7.47;;;;;;;11.73;68.70;98705.64;2285757;77;21628;-83
2021/09/19 08:52:44;;;;;;;10.70;6.83;;;;;;;11.77;69.01;98708.72;2319433;76;20969;-84
2021/09/19 08:55:45;;;;;;;9.85;6.35;;;;;;;11.78;68.89;98714.42;2330035;75;21044;-84
2021/09/19 08:58:45;;;;;;;10.43;6.25;;;;;;;11.76;68.69;98712.20;2320013;76;20982;-82
2021/09/19 09:01:46;;;;;;;9.70;6.30;;;;;;;11.77;68.90;98710.92;2288652;76;21043;-83
2021/09/19 09:04:47;;;;;;;11.30;6.05;;;;;;;11.94;69.18;98708.83;2313457;76;20959;-83
2021/09/19 09:07:47;;;;;;;7.30;5.95;;;;;;;12.11;68.85;98701.48;2315828;75;20978;-84
2021/09/19 09:10:48;;;;;;;13.58;6.47;;;;;;;12.13;67.69;98704.97;2314555;77;20943;-84
2021/09/19 09:13:48;;;;;;;7.58;6.22;;;;;;;11.92;66.67;98711.87;2319098;76;21015;-83
2021/09/19 09:16:49;;;;;;;15.80;6.90;;;;;;;11.59;67.62;98709.49;2317410;77;20998;-84
2021/09/19 09:19:50;;;;;;;5.78;5.25;;;;;;;11.35;68.78;98708.03;2313935;76;21332;-82
2021/09/19 09:22:50;;;;;;;10.50;6.08;;;;;;;11.14;68.73;98702.20;2310147;76;20968;-84
2021/09/19 09:25:51;;;;;;;8.68;6.20;;;;;;;11.25;68.78;98697.05;2315417;75;20915;-83
2021/09/19 09:28:51;;;;;;;8.28;5.85;;;;;;;11.34;68.64;98707.16;2315582;75;20947;-84
2021/09/19 09:31:52;;;;;;;10.68;5.97;;;;;;;11.50;69.23;98698.98;2315916;77;21370;-84
2021/09/19 09:34:52;;;;;;;12.98;6.20;;;;;;;11.45;68.78;98688.50;2312319;77;20940;-82
2021/09/19 09:37:53;;;;;;;8.23;5.58;;;;;;;11.53;69.19;98689.85;2313200;74;20928;-84
2021/09/19 09:40:53;;;;;;;10.68;6.05;;;;;;;11.65;69.29;98695.58;2314445;77;20944;-83
2021/09/19 09:43:54;;;;;;;7.62;5.60;;;;;;;11.67;68.22;98691.23;2314671;76;20956;-83
2021/09/19 09:46:54;;;;;;;8.73;5.42;;;;;;;11.57;68.91;98690.31;2312590;76;21384;-83
2021/09/19 09:49:55;;;;;;;11.00;5.90;;;;;;;11.51;69.88;98703.78;2313326;76;21339;-84
2021/09/19 09:52:56;;;;;;;8.38;6.10;;;;;;;11.43;68.02;98719.41;2307087;76;20972;-83
2021/09/19 09:55:56;;;;;;;7.60;6.10;;;;;;;11.27;68.94;98706.69;2314746;76;20923;-84
2021/09/19 09:58:57;;;;;;;8.78;5.67;;;;;;;11.19;69.61;98707.02;2318972;77;20925;-83
2021/09/19 10:02:01;;;;;;;9.13;5.42;;;;;;;11.10;69.39;98703.05;2310876;76;21026;-84
2021/09/19 10:05:00;;;;;;;10.28;5.58;;;;;;;11.04;70.37;98704.30;2314039;76;21016;-84
2021/09/19 10:08:00;;;;;;;8.35;5.60;;;;;;;10.97;69.95;98709.03;2315981;76;21324;-84
2021/09/19 10:11:01;;;;;;;9.85;5.67;;;;;;;10.83;70.28;98702.39;2317476;76;20996;-84
2021/09/19 10:14:01;;;;;;;7.62;6.10;;;;;;;10.79;70.52;98698.88;2313059;75;20932;-84
2021/09/19 10:17:02;;;;;;;8.08;6.20;;;;;;;10.95;71.51;98706.84;2311371;76;21006;-83
2021/09/19 10:20:02;;;;;;;11.15;5.80;;;;;;;11.05;70.09;98699.52;2315456;76;20994;-85
2021/09/19 10:23:04;;;;;;;15.32;6.25;;;;;;;11.15;70.03;98712.66;2313433;77;21059;-84
2021/09/19 10:26:12;;;;;;;9.13;5.83;;;;;;;11.17;69.17;98702.22;2313451;74;20959;-84
2021/09/19 10:29:12;;;;;;;10.78;5.92;;;;;;;11.19;68.84;98708.33;2322726;76;20987;-85
2021/09/19 10:32:13;;;;;;;6.72;5.33;;;;;;;11.34;69.72;98709.78;2314375;76;20967;-84
2021/09/19 10:35:13;;;;;;;6.50;5.37;;;;;;;11.38;67.89;98701.09;2314497;76;21300;-84
2021/09/19 10:38:14;;;;;;;10.80;5.33;;;;;;;11.63;68.50;98699.92;2310933;76;20936;-83
2021/09/19 10:41:17;;;;;;;7.33;5.45;;;;;;;11.88;66.23;98705.75;2310428;76;20931;-83
2021/09/19 10:44:16;;;;;;;13.68;5.80;;;;;;;12.02;65.68;98710.60;2310944;76;20991;-84
2021/09/19 10:47:17;;;;;;;9.45;5.20;;;;;;;12.16;66.53;98696.30;2309221;76;21272;-84
2021/09/19 10:50:21;;;;;;;8.03;5.00;;;;;;;12.32;66.02;98695.47;2315891;76;20960;-83
2021/09/19 10:53:20;;;;;;;8.10;5.42;;;;;;;12.28;64.83;98696.33;2319201;77;20967;-84
2021/09/19 10:56:20;;;;;;;12.15;7.40;;;;;;;12.27;65.55;98713.34;2315434;77;21299;-83
2021/09/19 10:59:21;;;;;;;11.28;6.00;;;;;;;12.34;66.56;98700.27;2310308;74;21331;-84
2021/09/19 11:02:21;;;;;;;10.18;6.05;;;;;;;12.30;65.02;98710.73;2309766;77;20975;-83
2021/09/19 11:05:22;;;;;;;9.23;6.67;;;;;;;12.19;65.77;98709.38;2314475;76;20987;-83
2021/09/19 11:08:22;;;;;;;7.45;5.20;;;;;;;12.22;65.77;98714.63;2311891;75;20951;-83
2021/09/19 11:11:23;;;;;;;7.30;4.72;;;;;;;12.28;64.85;98712.03;2310673;76;20956;-84
2021/09/19 11:14:23;;;;;;;7.30;5.78;;;;;;;12.31;63.78;98715.09;2313526;76;20956;-84
2021/09/19 11:17:24;;;;;;;7.30;4.95;;;;;;;12.33;63.77;98714.23;2312025;76;20948;-84
2021/09/19 11:20:25;;;;;;;8.25;4.90;;;;;;;12.47;64.66;98709.02;2317744;76;20963;-85
2021/09/19 11:23:26;;;;;;;8.43;5.00;;;;;;;12.48;64.00;98710.77;2283821;77;20952;-83
2021/09/19 11:26:26;;;;;;;10.08;4.45;;;;;;;12.54;63.51;98711.22;2321970;75;20963;-84
2021/09/19 11:29:28;;;;;;;6.80;4.72;;;;;;;12.54;63.17;98716.02;2315141;76;21422;-82
2021/09/19 11:32:30;;;;;;;7.25;5.15;;;;;;;12.62;63.16;98721.27;2282480;77;20999;-84
2021/09/19 11:35:30;;;;;;;6.62;5.40;;;;;;;12.69;62.80;98719.97;2365228;75;21307;-84
2021/09/19 11:38:31;;;;;;;8.50;5.00;;;;;;;12.81;62.91;98719.11;2359729;75;20887;-83
2021/09/19 11:41:31;;;;;;;8.28;4.75;;;;;;;12.88;62.57;98712.13;2301855;76;20983;-84
2021/09/19 11:44:31;;;;;;;11.80;4.62;;;;;;;13.03;62.29;98722.20;2276636;76;20982;-83
2021/09/19 11:47:32;;;;;;;8.20;4.70;;;;;;;13.06;61.70;98723.52;2298610;77;20967;-82
2021/09/19 11:50:32;;;;;;;6.83;4.95;;;;;;;13.07;62.49;98726.58;2279034;77;20892;-85
2021/09/19 11:53:33;;;;;;;8.23;4.87;;;;;;;12.97;62.29;98716.06;2316882;76;20959;-82
2021/09/19 11:56:36;;;;;;;5.97;4.90;;;;;;;12.80;62.50;98729.15;2315206;75;20974;-85
2021/09/19 11:59:36;;;;;;;8.40;4.80;;;;;;;12.66;62.32;98733.06;2321443;75;20939;-84
2021/09/19 12:02:37;;;;;;;6.60;4.95;;;;;;;12.63;63.46;98729.13;2325859;75;20962;-84
2021/09/19 12:05:37;;;;;;;8.20;4.37;;;;;;;12.66;63.46;98733.06;2310653;77;20956;-84
2021/09/19 12:08:38;;;;;;;10.23;4.87;;;;;;;12.61;62.67;98734.80;2315980;76;20943;-84
2021/09/19 12:11:38;;;;;;;5.05;4.35;;;;;;;12.55;63.38;98738.71;2321983;76;20974;-84
2021/09/19 12:14:39;;;;;;;12.98;4.85;;;;;;;12.57;62.99;98731.73;2309887;77;20894;-84
2021/09/19 12:17:39;;;;;;;11.80;4.40;;;;;;;12.66;63.69;98732.19;2318101;76;20951;-85
2021/09/19 12:20:40;;;;;;;5.30;4.05;;;;;;;12.80;63.89;98725.66;2317289;75;21035;-85
2021/09/19 12:23:41;;;;;;;11.38;4.58;;;;;;;12.84;62.88;98737.45;2313424;76;21000;-84
2021/09/19 12:26:41;;;;;;;8.55;4.92;;;;;;;12.86;63.65;98726.97;2288740;76;20938;-83
2021/09/19 12:29:42;;;;;;;9.78;4.70;;;;;;;12.86;63.66;98726.53;2314778;75;20996;-83
2021/09/19 12:32:42;;;;;;;8.78;5.05;;;;;;;12.85;64.76;98714.75;2310420;77;21011;-85
2021/09/19 12:35:43;;;;;;;7.03;4.97;;;;;;;12.80;64.38;98721.73;2370690;75;20949;-83
2021/09/19 12:38:43;;;;;;;10.50;4.80;;;;;;;12.73;65.44;98723.03;2375579;75;20909;-83
2021/09/19 12:41:44;;;;;;;8.08;4.37;;;;;;;12.69;64.88;98735.69;2371569;75;21345;-82
2021/09/19 12:44:44;;;;;;;10.53;5.15;;;;;;;12.62;65.75;98724.77;2365531;75;20932;-84
2021/09/19 12:47:45;;;;;;;7.55;4.95;;;;;;;12.55;66.19;98717.77;2370184;75;20936;-84
2021/09/19 12:50:45;;;;;;;12.68;4.83;;;;;;;12.50;66.84;98712.95;2359942;75;20904;-83
2021/09/19 12:53:46;;;;;;;14.63;4.55;;;;;;;12.53;66.69;98717.32;2371983;75;20972;-84
2021/09/19 12:56:47;;;;;;;8.30;4.80;;;;;;;12.49;67.15;98705.09;2291770;76;21354;-84
2021/09/19 12:59:47;;;;;;;9.60;5.00;;;;;;;12.51;66.48;98704.23;2314724;77;20932;-83
2021/09/19 13:02:47;;;;;;;6.45;5.42;;;;;;;12.55;66.92;98703.80;2284261;77;20968;-84
2021/09/19 13:05:48;;;;;;;6.42;4.62;;;;;;;12.49;66.87;98697.25;2368569;75;20940;-83
2021/09/19 13:08:49;;;;;;;8.43;5.20;;;;;;;12.39;66.87;98698.97;2372823;75;20932;-83
2021/09/19 13:11:50;;;;;;;5.10;4.60;;;;;;;12.39;67.40;98706.39;2365187;75;21325;-84
2021/09/19 13:14:50;;;;;;;15.60;8.05;;;;;;;12.42;67.11;98704.21;2277337;76;20923;-83
2021/09/19 13:17:51;;;;;;;10.20;6.10;;;;;;;12.43;67.44;98700.72;2317229;76;21049;-84
2021/09/19 13:20:51;;;;;;;8.53;5.12;;;;;;;12.47;67.56;98706.41;2314849;76;20955;-83
2021/09/19 13:23:51;;;;;;;6.40;5.00;;;;;;;12.36;66.77;98714.67;2308215;76;21010;-84
2021/09/19 13:29:54;;;;;;;7.65;4.92;;;;;;;12.21;68.19;98704.16;2284400;76;21050;-84
2021/09/19 13:32:55;;;;;;;6.12;4.83;;;;;;;12.24;67.29;98708.09;2315982;76;21379;-84
2021/09/19 13:35:55;;;;;;;9.90;4.57;;;;;;;12.19;68.44;98704.59;2316353;76;20987;-85
2021/09/19 13:38:56;;;;;;;6.65;5.20;;;;;;;12.08;68.37;98711.93;2316288;76;20916;-85
2021/09/19 13:41:56;;;;;;;10.23;5.53;;;;;;;12.03;68.86;98709.73;2315981;75;21026;-85
2021/09/19 13:44:57;;;;;;;9.13;5.50;;;;;;;12.00;69.21;98711.03;2315403;76;20920;-84
2021/09/19 13:47:57;;;;;;;8.35;5.62;;;;;;;11.97;69.60;98708.40;2315792;76;20979;-83
2021/09/19 13:50:58;;;;;;;8.03;5.03;;;;;;;11.88;69.54;98714.91;2314495;77;21606;-82
2021/09/19 13:53:58;;;;;;;8.40;6.42;;;;;;;11.85;69.78;98707.05;2314768;76;20968;-81
2021/09/19 13:56:59;;;;;;;10.77;5.53;;;;;;;11.83;70.17;98716.62;2315633;75;20932;-83
2021/09/19 13:59:59;;;;;;;11.85;6.05;;;;;;;11.82;70.43;98708.34;2317016;75;20932;-82
2021/09/19 14:03:00;;;;;;;9.78;5.90;;;;;;;11.87;70.54;98704.44;2313849;76;21006;-83
2021/09/19 14:06:00;;;;;;;7.08;5.30;;;;;;;11.93;70.52;98705.33;2313728;76;21343;-82
2021/09/19 14:09:01;;;;;;;6.42;5.05;;;;;;;11.98;70.13;98695.77;2315941;76;20986;-82
2021/09/19 14:12:02;;;;;;;8.28;5.15;;;;;;;12.03;70.24;98710.16;2315967;76;20970;-81